Impacts METAR Board
IDs:

KPIT - Pittsburgh Intl, PA, US

Updated at: 2300 UTC 18 Dec 2018
Potential Impact None Slight Moderate High
Time 18/11Z 18/12Z 18/13Z 18/14Z 18/15Z 18/16Z 18/17Z 18/18Z 18/19Z 18/20Z 18/21Z 18/22Z 18/23Z
Temp31 31 30 31 32 34 33 35 36 37 36 34 33
Dewpt22 21 22 21 21 22 21 22 22 22 21 22 21
Altim30.15 30.16 30.17 30.20 30.21 30.22 30.20 30.18 30.17 30.17 30.17 30.18 30.17
VIS10 10 10 10 10 10 10 10 10 10 10 10 10
CIG28 28 28 28 28 29 -- -- -- -- -- -- --
CoverOVCOVCOVCOVCOVCBKNSCTSCTSCTFEWFEWFEWFEW
FltCatMVFRMVFRMVFRMVFRMVFRMVFRVFRVFRVFRVFRVFRVFRVFR
WX--------------------------
WDir330330330330320330310300310350310300360
WSpd8 8 6 7 9 9 8 7 9 3 4 5 5
WGst-- -- -- -- -- 14 -- -- -- -- -- -- --
Raw hourly METARs
KPIT 181051Z 33008KT 10SM OVC028 M01/M06 A3015 RMK AO2 SLP229 T10061056
KPIT 181151Z 33008KT 10SM OVC028 M01/M06 A3016 RMK AO2 SLP232 T10061061 10000 21011 51010
KPIT 181251Z 33006KT 10SM OVC028 M01/M06 A3017 RMK AO2 SLP236 T10111056
KPIT 181351Z 33007KT 10SM OVC028 M01/M06 A3020 RMK AO2 SLP245 BINOVC T10061061
KPIT 181451Z 32009KT 10SM OVC028 00/M06 A3021 RMK AO2 SLP251 T00001061 53018
KPIT 181551Z 33009G14KT 10SM BKN029 01/M06 A3022 RMK AO2 SLP252 T00111056
KPIT 181651Z 31008KT 10SM SCT030 01/M06 A3020 RMK AO2 SLP246 T00061061
KPIT 181751Z 30007KT 10SM SCT035 SCT250 02/M06 A3018 RMK AO2 SLP240 T00171056 10017 21011 58011
KPIT 181851Z 31009KT 10SM SCT034 SCT250 02/M06 A3017 RMK AO2 SLP237 T00221056
KPIT 181951Z 35003KT 10SM FEW035 FEW250 03/M06 A3017 RMK AO2 SLP235 T00281056
KPIT 182051Z 31004KT 10SM FEW035 FEW250 02/M06 A3017 RMK AO2 SLP237 T00221061 55002
KPIT 182151Z 30005KT 10SM FEW250 01/M06 A3018 RMK AO2 SLP238 T00111056
KPIT 182251Z 36005KT 10SM FEW250 01/M06 A3017 RMK AO2 SLP236 T00061061



Page loaded:  23:28 UTC  |   03:28 PM Pacific  |   04:28 PM Mountain  |   05:28 PM Central  |   06:28 PM Eastern

 

ADVISORIES

FORECASTS

FORECASTS

OBSERVATIONS

USER TOOLS

ABOUT US